Time;durP1;ratioP1;P1;durP2;ratioP2;P2;SDS_P1;SDS_P2;PMS_P1;PMS_P2;Temp;Humidity;BMP_temperature;BMP_pressure;BME280_temperature;BME280_humidity;BME280_pressure;Samples;Min_cycle;Max_cycle;Signal;HPM_P1;HPM_P2
2021/12/01 00:01:28;;;;;;;;;;;20.70;59.80;;;;;;4995625;28;1330;-70
2021/12/01 00:03:54;;;;;;;;;;;20.60;59.80;;;;;;4996262;28;1136;-70
2021/12/01 00:06:19;;;;;;;;;;;20.60;59.80;;;;;;5004616;28;1213;-70
2021/12/01 00:08:45;;;;;;;;;;;20.60;59.80;;;;;;5000339;28;1339;-70
2021/12/01 00:11:10;;;;;;;;;;;20.60;59.90;;;;;;4995474;28;1957;-70
2021/12/01 00:13:36;;;;;;;;;;;20.60;59.90;;;;;;5007985;28;1057;-69
2021/12/01 00:16:02;;;;;;;;;;;20.60;59.90;;;;;;5003681;28;1314;-70
2021/12/01 00:18:27;;;;;;;;;;;20.60;59.90;;;;;;4999300;28;1128;-70
2021/12/01 00:20:53;;;;;;;;;;;20.60;59.90;;;;;;5003428;28;1060;-69
2021/12/01 00:23:18;;;;;;;;;;;20.60;60.00;;;;;;4999824;28;1270;-70
2021/12/01 00:25:44;;;;;;;;;;;20.60;60.00;;;;;;4996098;28;1275;-70
2021/12/01 00:28:09;;;;;;;;;;;20.60;60.00;;;;;;4995887;28;1134;-70
2021/12/01 00:30:35;;;;;;;;;;;20.60;60.00;;;;;;5002900;28;1954;-70
2021/12/01 00:33:00;;;;;;;;;;;20.60;60.00;;;;;;4999902;28;1147;-69
2021/12/01 00:35:27;;;;;;;;;;;20.50;60.00;;;;;;5003054;28;1387;-70
2021/12/01 00:37:53;;;;;;;;;;;20.50;60.00;;;;;;5000137;28;1099;-69
2021/12/01 00:40:18;;;;;;;;;;;20.60;60.10;;;;;;4995521;28;1147;-70
2021/12/01 00:42:44;;;;;;;;;;;20.50;60.10;;;;;;5007110;28;1186;-70
2021/12/01 00:45:18;;;;;;;;;;;20.50;60.10;;;;;;5002817;28;1278;-70
2021/12/01 00:47:45;;;;;;;;;;;20.50;60.10;;;;;;4998715;28;1147;-70
2021/12/01 00:50:11;;;;;;;;;;;20.50;60.10;;;;;;4995516;28;1985;-71
2021/12/01 00:52:37;;;;;;;;;;;20.50;60.10;;;;;;4994361;28;1104;-70
2021/12/01 00:55:03;;;;;;;;;;;20.50;60.10;;;;;;4995269;28;1291;-70
2021/12/01 00:57:28;;;;;;;;;;;20.50;60.20;;;;;;4995447;28;1329;-70
2021/12/01 00:59:53;;;;;;;;;;;20.50;60.20;;;;;;4994876;28;1068;-70
2021/12/01 01:02:19;;;;;;;;;;;20.50;60.20;;;;;;4993459;28;1099;-70
2021/12/01 01:04:44;;;;;;;;;;;20.50;60.20;;;;;;4995312;28;1123;-70
2021/12/01 01:07:10;;;;;;;;;;;20.50;60.20;;;;;;4995264;28;1188;-70
2021/12/01 01:09:35;;;;;;;;;;;20.50;60.20;;;;;;4995019;28;1944;-70
2021/12/01 01:17:38;;;;;;;;;;;20.40;60.20;;;;;;5002911;28;1237;-70
2021/12/01 01:20:11;;;;;;;;;;;20.40;60.30;;;;;;5000331;28;1105;-71
2021/12/01 01:22:37;;;;;;;;;;;20.40;60.30;;;;;;5002662;28;1068;-70
2021/12/01 01:25:03;;;;;;;;;;;20.40;60.30;;;;;;5011117;28;1288;-70
2021/12/01 01:27:29;;;;;;;;;;;20.40;60.30;;;;;;5003992;28;1171;-71
2021/12/01 01:29:54;;;;;;;;;;;20.40;60.30;;;;;;5010335;28;1902;-70
2021/12/01 01:32:20;;;;;;;;;;;20.40;60.30;;;;;;5004561;28;1358;-70
2021/12/01 01:34:45;;;;;;;;;;;20.40;60.40;;;;;;5005936;28;1339;-70
2021/12/01 01:37:11;;;;;;;;;;;20.40;60.40;;;;;;4985913;28;1286;-70
2021/12/01 01:39:36;;;;;;;;;;;20.40;60.40;;;;;;4997318;28;1056;-70
2021/12/01 01:42:02;;;;;;;;;;;20.40;60.40;;;;;;5004096;28;1170;-71
2021/12/01 01:44:30;;;;;;;;;;;20.40;60.40;;;;;;5013806;28;1099;-70
2021/12/01 01:46:56;;;;;;;;;;;20.40;60.40;;;;;;5013051;28;1303;-70
2021/12/01 01:49:34;;;;;;;;;;;20.40;60.50;;;;;;5028826;28;1951;-70
2021/12/01 01:52:00;;;;;;;;;;;20.40;60.50;;;;;;5013574;28;1048;-70
2021/12/01 01:54:25;;;;;;;;;;;20.40;60.50;;;;;;5013692;28;1354;-69
2021/12/01 01:56:50;;;;;;;;;;;20.30;60.40;;;;;;5013883;28;1280;-71
2021/12/01 01:59:16;;;;;;;;;;;20.40;60.50;;;;;;5013623;28;1350;-70
2021/12/01 02:01:44;;;;;;;;;;;20.40;60.50;;;;;;5011838;28;1341;-71
2021/12/01 02:04:15;;;;;;;;;;;20.40;60.50;;;;;;4992946;28;1140;-70
2021/12/01 02:06:40;;;;;;;;;;;20.40;60.50;;;;;;5006200;28;1343;-70
2021/12/01 02:09:06;;;;;;;;;;;20.40;60.50;;;;;;5005452;28;1899;-71
2021/12/01 02:11:32;;;;;;;;;;;20.40;60.50;;;;;;5005765;28;1052;-70
2021/12/01 02:13:57;;;;;;;;;;;20.40;60.50;;;;;;4992616;28;1443;-70
2021/12/01 02:16:23;;;;;;;;;;;20.40;60.40;;;;;;5005480;28;1283;-70
2021/12/01 02:18:48;;;;;;;;;;;20.40;60.50;;;;;;5013207;28;1224;-70
2021/12/01 02:21:27;;;;;;;;;;;20.40;60.40;;;;;;5009768;28;1139;-71
2021/12/01 02:23:53;;;;;;;;;;;20.40;60.40;;;;;;5000858;28;1147;-70
2021/12/01 02:26:19;;;;;;;;;;;20.40;60.40;;;;;;5012447;28;1275;-71
2021/12/01 02:28:45;;;;;;;;;;;20.40;60.40;;;;;;5013320;28;1051;-71
2021/12/01 02:31:10;;;;;;;;;;;20.40;60.30;;;;;;5006713;28;1894;-70
2021/12/01 02:33:36;;;;;;;;;;;20.40;60.30;;;;;;4993373;28;1040;-71
2021/12/01 02:36:02;;;;;;;;;;;20.40;60.30;;;;;;4993514;28;1295;-70
2021/12/01 02:38:28;;;;;;;;;;;20.40;60.30;;;;;;5000401;28;1143;-70
2021/12/01 02:40:53;;;;;;;;;;;20.40;60.20;;;;;;4998574;28;1238;-70
2021/12/01 02:43:23;;;;;;;;;;;20.40;60.20;;;;;;5011682;28;1060;-70
2021/12/01 02:45:52;;;;;;;;;;;20.40;60.10;;;;;;4998590;28;1392;-71
2021/12/01 02:48:18;;;;;;;;;;;20.40;60.20;;;;;;5003682;28;1161;-71
2021/12/01 02:50:43;;;;;;;;;;;20.40;60.10;;;;;;5007261;28;1906;-71
2021/12/01 02:53:09;;;;;;;;;;;20.50;60.20;;;;;;5012613;28;1119;-71
2021/12/01 02:55:36;;;;;;;;;;;20.40;60.10;;;;;;5012818;28;1329;-70
2021/12/01 02:58:01;;;;;;;;;;;20.40;60.10;;;;;;5013225;28;1401;-71
2021/12/01 03:00:27;;;;;;;;;;;20.40;60.10;;;;;;4997931;28;1339;-71
2021/12/01 03:02:53;;;;;;;;;;;20.40;60.10;;;;;;5003585;28;1308;-69
2021/12/01 03:05:18;;;;;;;;;;;20.40;60.10;;;;;;5005783;28;1297;-70
2021/12/01 03:07:44;;;;;;;;;;;20.40;60.10;;;;;;5012846;28;1147;-70
2021/12/01 03:10:10;;;;;;;;;;;20.40;60.20;;;;;;4998035;28;1895;-71
2021/12/01 03:12:36;;;;;;;;;;;20.40;60.20;;;;;;5003510;28;1143;-70
2021/12/01 03:15:01;;;;;;;;;;;20.40;60.10;;;;;;5006507;28;1358;-70
2021/12/01 03:17:27;;;;;;;;;;;20.40;60.20;;;;;;5012321;28;1142;-70
2021/12/01 03:19:53;;;;;;;;;;;20.40;60.20;;;;;;5012620;28;1299;-71
2021/12/01 03:22:18;;;;;;;;;;;20.40;60.20;;;;;;5004184;28;1193;-70
2021/12/01 03:24:44;;;;;;;;;;;20.40;60.20;;;;;;5008375;28;989;-70
2021/12/01 03:27:09;;;;;;;;;;;20.40;60.20;;;;;;4997259;28;1179;-69
2021/12/01 03:29:35;;;;;;;;;;;20.40;60.30;;;;;;4997121;28;1956;-70
2021/12/01 03:32:00;;;;;;;;;;;20.40;60.30;;;;;;5008920;28;1292;-70
2021/12/01 03:34:26;;;;;;;;;;;20.40;60.30;;;;;;4997082;28;1080;-70
2021/12/01 03:36:51;;;;;;;;;;;20.40;60.30;;;;;;4997637;28;1291;-71
2021/12/01 03:39:17;;;;;;;;;;;20.40;60.30;;;;;;5003924;28;1158;-71
2021/12/01 03:41:42;;;;;;;;;;;20.40;60.30;;;;;;5014127;28;1337;-70
2021/12/01 03:44:08;;;;;;;;;;;20.40;60.40;;;;;;5000994;28;1160;-70
2021/12/01 03:46:33;;;;;;;;;;;20.40;60.40;;;;;;5002516;28;1285;-71
2021/12/01 03:48:59;;;;;;;;;;;20.40;60.40;;;;;;5001332;28;1081;-70
2021/12/01 03:51:24;;;;;;;;;;;20.40;60.50;;;;;;4996145;28;1895;-71
2021/12/01 03:53:50;;;;;;;;;;;20.40;60.40;;;;;;4996403;28;1040;-71
2021/12/01 03:56:18;;;;;;;;;;;20.40;60.50;;;;;;5002035;28;1325;-70
2021/12/01 03:58:44;;;;;;;;;;;20.40;60.50;;;;;;5002102;28;1095;-71
2021/12/01 04:01:12;;;;;;;;;;;20.40;60.50;;;;;;4985190;28;1148;-71
2021/12/01 04:03:38;;;;;;;;;;;20.30;60.40;;;;;;5001642;28;1126;-70
2021/12/01 04:06:04;;;;;;;;;;;20.30;60.50;;;;;;5002561;28;1319;-70
2021/12/01 04:08:29;;;;;;;;;;;20.30;60.50;;;;;;5000679;28;1073;-70
2021/12/01 04:10:55;;;;;;;;;;;20.30;60.50;;;;;;4995883;28;1903;-69
2021/12/01 04:13:20;;;;;;;;;;;20.30;60.50;;;;;;4995479;28;1107;-70
2021/12/01 04:15:46;;;;;;;;;;;20.30;60.50;;;;;;4986376;28;1354;-70
2021/12/01 04:18:11;;;;;;;;;;;20.30;60.60;;;;;;5001566;28;1374;-70
2021/12/01 04:20:37;;;;;;;;;;;20.30;60.60;;;;;;5002051;28;1277;-70
2021/12/01 04:23:02;;;;;;;;;;;20.30;60.60;;;;;;5000316;28;1151;-70
2021/12/01 04:25:28;;;;;;;;;;;20.30;60.70;;;;;;5007012;28;1357;-70
2021/12/01 04:27:53;;;;;;;;;;;20.30;60.70;;;;;;5009375;28;981;-70
2021/12/01 04:30:23;;;;;;;;;;;20.30;60.70;;;;;;5015393;28;1902;-70
2021/12/01 04:32:49;;;;;;;;;;;20.30;60.70;;;;;;5001091;28;1080;-70
2021/12/01 04:35:17;;;;;;;;;;;20.30;60.70;;;;;;5015178;28;1274;-70
2021/12/01 04:37:43;;;;;;;;;;;20.30;60.80;;;;;;4999911;28;1296;-70
2021/12/01 04:40:08;;;;;;;;;;;20.30;60.80;;;;;;5015102;28;1059;-70
2021/12/01 04:42:34;;;;;;;;;;;20.30;60.80;;;;;;5011941;28;1282;-69
2021/12/01 04:45:00;;;;;;;;;;;20.20;60.80;;;;;;5002515;28;1285;-70
2021/12/01 04:47:29;;;;;;;;;;;20.20;60.70;;;;;;5001468;28;1379;-70
2021/12/01 04:49:55;;;;;;;;;;;20.20;60.80;;;;;;5002798;28;1906;-70
2021/12/01 04:52:21;;;;;;;;;;;20.20;60.70;;;;;;4998091;28;1104;-70
2021/12/01 04:54:46;;;;;;;;;;;20.20;60.70;;;;;;4985465;28;1337;-71
2021/12/01 04:57:12;;;;;;;;;;;20.20;60.70;;;;;;4999553;28;1285;-70
2021/12/01 04:59:37;;;;;;;;;;;20.20;60.80;;;;;;5002213;28;1057;-70
2021/12/01 05:02:03;;;;;;;;;;;20.20;60.80;;;;;;4999926;28;1056;-70
2021/12/01 05:04:29;;;;;;;;;;;20.20;60.70;;;;;;5001849;28;1270;-70
2021/12/01 05:06:54;;;;;;;;;;;20.20;60.70;;;;;;5001495;28;1291;-70
2021/12/01 05:09:20;;;;;;;;;;;20.20;60.80;;;;;;5006035;28;1915;-70
2021/12/01 05:11:45;;;;;;;;;;;20.20;60.70;;;;;;5008261;28;1088;-72
2021/12/01 05:14:11;;;;;;;;;;;20.20;60.70;;;;;;5014355;28;1048;-69
2021/12/01 05:16:37;;;;;;;;;;;20.30;60.80;;;;;;5029486;28;1435;-70
2021/12/01 05:19:05;;;;;;;;;;;20.30;60.70;;;;;;5006854;28;1152;-70
2021/12/01 05:21:30;;;;;;;;;;;20.30;60.60;;;;;;5006158;28;1061;-70
2021/12/01 05:23:56;;;;;;;;;;;20.40;60.50;;;;;;4994497;28;1303;-70
2021/12/01 05:26:21;;;;;;;;;;;20.40;60.40;;;;;;4995387;28;1356;-70
2021/12/01 05:28:47;;;;;;;;;;;20.40;60.20;;;;;;4994930;28;1304;-71
2021/12/01 05:31:13;;;;;;;;;;;20.50;60.10;;;;;;5005494;28;1907;-70
2021/12/01 05:33:40;;;;;;;;;;;20.50;59.90;;;;;;5000509;28;1560;-70
2021/12/01 05:36:06;;;;;;;;;;;20.50;59.80;;;;;;5000453;28;1344;-70
2021/12/01 05:38:31;;;;;;;;;;;20.60;59.70;;;;;;5000612;28;1312;-70
2021/12/01 05:40:56;;;;;;;;;;;20.60;59.60;;;;;;5001308;28;1087;-71
2021/12/01 05:43:22;;;;;;;;;;;20.60;59.50;;;;;;5012757;28;1080;-69
2021/12/01 05:45:47;;;;;;;;;;;20.70;59.50;;;;;;5013193;28;1313;-70
2021/12/01 05:48:13;;;;;;;;;;;20.70;59.40;;;;;;5013490;28;1318;-70
2021/12/01 05:50:39;;;;;;;;;;;20.70;59.40;;;;;;5013913;28;1910;-70
2021/12/01 05:53:04;;;;;;;;;;;20.70;59.30;;;;;;5004336;28;1068;-70
2021/12/01 05:55:30;;;;;;;;;;;20.70;59.20;;;;;;5008110;28;1393;-70
2021/12/01 05:57:56;;;;;;;;;;;20.70;59.20;;;;;;5014016;28;1300;-70
2021/12/01 06:00:21;;;;;;;;;;;20.80;59.20;;;;;;5012327;28;1330;-70
2021/12/01 06:02:50;;;;;;;;;;;20.80;59.20;;;;;;5012096;28;1316;-71
2021/12/01 06:05:16;;;;;;;;;;;20.80;59.20;;;;;;4999569;28;1267;-70
2021/12/01 06:07:42;;;;;;;;;;;20.80;59.20;;;;;;5013474;28;1135;-69
2021/12/01 06:10:08;;;;;;;;;;;20.80;59.10;;;;;;4998551;28;1898;-69
2021/12/01 06:12:33;;;;;;;;;;;20.80;59.10;;;;;;5003972;28;1237;-71
2021/12/01 06:14:59;;;;;;;;;;;20.80;59.10;;;;;;5008125;28;1438;-71
2021/12/01 06:17:25;;;;;;;;;;;20.80;59.10;;;;;;5013625;28;1072;-70
2021/12/01 06:19:52;;;;;;;;;;;20.80;59.00;;;;;;4998970;28;1143;-71
2021/12/01 06:22:17;;;;;;;;;;;20.80;59.10;;;;;;5004742;28;1218;-70
2021/12/01 06:24:43;;;;;;;;;;;20.80;59.10;;;;;;4993472;28;1115;-70
2021/12/01 06:27:08;;;;;;;;;;;20.80;59.10;;;;;;4993637;28;1220;-70
2021/12/01 06:29:34;;;;;;;;;;;20.80;59.10;;;;;;5005582;28;1930;-70
2021/12/01 06:31:59;;;;;;;;;;;20.80;59.00;;;;;;5003947;28;1423;-71
2021/12/01 06:34:24;;;;;;;;;;;20.80;59.00;;;;;;4993293;28;1239;-70
2021/12/01 06:36:50;;;;;;;;;;;20.80;59.00;;;;;;4993697;28;1307;-70
2021/12/01 06:39:15;;;;;;;;;;;20.80;59.00;;;;;;4993198;28;999;-71
2021/12/01 06:41:41;;;;;;;;;;;20.80;59.00;;;;;;4999961;28;1043;-70
2021/12/01 06:44:06;;;;;;;;;;;20.80;59.10;;;;;;5012761;28;1153;-71
2021/12/01 06:46:32;;;;;;;;;;;20.80;59.60;;;;;;5013164;28;1189;-71
2021/12/01 06:48:57;;;;;;;;;;;20.80;59.00;;;;;;4998691;28;1375;-71
2021/12/01 06:51:23;;;;;;;;;;;20.80;59.00;;;;;;5004222;28;1907;-69
2021/12/01 06:53:49;;;;;;;;;;;20.80;59.00;;;;;;5006019;28;1104;-70
2021/12/01 06:56:16;;;;;;;;;;;20.80;59.00;;;;;;5012754;28;1310;-71
2021/12/01 06:58:41;;;;;;;;;;;20.80;59.10;;;;;;5028228;28;1673;-71
2021/12/01 07:01:07;;;;;;;;;;;20.80;59.00;;;;;;5012025;28;1123;-71
2021/12/01 07:03:33;;;;;;;;;;;20.80;59.00;;;;;;5011338;28;1332;-70
2021/12/01 07:05:58;;;;;;;;;;;20.80;59.00;;;;;;4992359;28;1296;-70
2021/12/01 07:08:23;;;;;;;;;;;20.80;59.00;;;;;;5005508;28;1309;-71
2021/12/01 07:10:49;;;;;;;;;;;20.80;59.10;;;;;;5011716;28;1954;-71
2021/12/01 07:13:15;;;;;;;;;;;20.80;59.00;;;;;;5012229;28;1271;-70
2021/12/01 07:15:40;;;;;;;;;;;20.80;59.00;;;;;;5012471;28;1396;-70
2021/12/01 07:18:05;;;;;;;;;;;20.80;59.00;;;;;;5012808;28;1150;-71
2021/12/01 07:20:31;;;;;;;;;;;20.80;59.00;;;;;;5012236;28;1294;-71
2021/12/01 07:22:56;;;;;;;;;;;20.80;59.10;;;;;;4999547;28;1295;-70
2021/12/01 07:25:22;;;;;;;;;;;20.80;59.00;;;;;;4992601;28;1197;-70
2021/12/01 07:27:47;;;;;;;;;;;20.80;59.00;;;;;;4992865;28;1139;-70
2021/12/01 07:30:13;;;;;;;;;;;20.80;59.00;;;;;;4996397;28;1948;-70
2021/12/01 07:32:38;;;;;;;;;;;20.80;59.10;;;;;;5000278;28;1286;-70
2021/12/01 07:35:04;;;;;;;;;;;20.80;59.10;;;;;;4992549;28;1368;-70
2021/12/01 07:37:29;;;;;;;;;;;20.80;59.00;;;;;;5003483;28;1297;-70
2021/12/01 07:39:55;;;;;;;;;;;20.80;58.90;;;;;;4992894;28;1215;-69
2021/12/01 07:42:20;;;;;;;;;;;20.80;56.20;;;;;;5005486;28;1178;-70
2021/12/01 07:44:46;;;;;;;;;;;20.70;55.10;;;;;;5012413;28;1115;-71
2021/12/01 07:47:12;;;;;;;;;;;20.70;56.10;;;;;;5013114;28;1248;-71
2021/12/01 07:49:38;;;;;;;;;;;20.80;56.40;;;;;;5010509;28;1903;-69
2021/12/01 07:52:05;;;;;;;;;;;20.90;57.00;;;;;;5018050;28;1323;-69
2021/12/01 07:54:30;;;;;;;;;;;21.00;57.20;;;;;;5015473;28;1954;-70
2021/12/01 07:56:56;;;;;;;;;;;21.10;57.20;;;;;;5018038;28;2006;-69
2021/12/01 07:59:21;;;;;;;;;;;21.20;57.10;;;;;;5019086;28;1354;-70
2021/12/01 08:01:47;;;;;;;;;;;21.30;57.00;;;;;;5016262;28;1566;-70
2021/12/01 08:04:12;;;;;;;;;;;21.40;57.00;;;;;;5035876;28;1675;-71
2021/12/01 08:06:38;;;;;;;;;;;21.50;56.80;;;;;;5020667;28;1291;-72
2021/12/01 08:09:04;;;;;;;;;;;21.60;56.80;;;;;;5018415;28;1442;-70
2021/12/01 08:11:29;;;;;;;;;;;21.70;56.70;;;;;;5019843;28;1898;-68
2021/12/01 08:13:55;;;;;;;;;;;21.80;56.60;;;;;;5014397;28;1404;-70
2021/12/01 08:16:20;;;;;;;;;;;21.90;56.50;;;;;;5007552;28;1829;-71
2021/12/01 08:18:51;;;;;;;;;;;22.00;56.50;;;;;;5015546;28;1371;-70
2021/12/01 08:21:20;;;;;;;;;;;22.10;56.40;;;;;;5012787;28;1653;-71
2021/12/01 08:23:45;;;;;;;;;;;22.20;56.40;;;;;;4996311;28;1684;-70
2021/12/01 08:26:11;;;;;;;;;;;22.20;56.20;;;;;;4995492;28;1549;-69
2021/12/01 08:28:36;;;;;;;;;;;22.30;56.20;;;;;;5013809;28;1455;-71
2021/12/01 08:31:02;;;;;;;;;;;22.30;56.10;;;;;;5012520;28;1967;-71
2021/12/01 08:33:27;;;;;;;;;;;22.40;56.10;;;;;;4996165;28;1441;-70
2021/12/01 08:35:53;;;;;;;;;;;22.50;56.10;;;;;;5006192;28;1391;-71
2021/12/01 08:38:18;;;;;;;;;;;22.50;56.00;;;;;;5030233;28;1739;-70
2021/12/01 08:40:44;;;;;;;;;;;22.50;55.90;;;;;;5003476;28;1310;-71
2021/12/01 08:43:09;;;;;;;;;;;22.60;56.00;;;;;;5013742;28;1489;-71
2021/12/01 08:45:35;;;;;;;;;;;22.60;55.90;;;;;;5015065;28;1390;-71
2021/12/01 08:48:03;;;;;;;;;;;22.60;55.90;;;;;;5014745;28;1472;-71
2021/12/01 08:50:28;;;;;;;;;;;22.70;55.90;;;;;;5001170;28;1915;-70
2021/12/01 08:52:54;;;;;;;;;;;22.70;55.90;;;;;;5012675;28;1464;-70
2021/12/01 08:55:22;;;;;;;;;;;22.70;55.80;;;;;;5015185;28;1267;-70
2021/12/01 08:57:47;;;;;;;;;;;22.70;55.90;;;;;;5014473;28;1836;-70
2021/12/01 09:00:13;;;;;;;;;;;22.80;56.00;;;;;;5000696;28;1637;-71
2021/12/01 09:02:39;;;;;;;;;;;22.80;56.00;;;;;;5013655;28;1108;-71
2021/12/01 09:05:04;;;;;;;;;;;22.80;56.00;;;;;;5014772;28;1306;-70
2021/12/01 09:07:30;;;;;;;;;;;22.90;56.00;;;;;;5014943;28;1276;-70
2021/12/01 09:09:55;;;;;;;;;;;22.90;56.00;;;;;;5014272;28;1909;-71
2021/12/01 09:12:21;;;;;;;;;;;22.90;56.00;;;;;;5013474;28;1443;-69
2021/12/01 09:14:47;;;;;;;;;;;22.90;56.10;;;;;;5014641;28;1433;-70
2021/12/01 09:17:12;;;;;;;;;;;22.90;56.00;;;;;;4994241;28;1485;-70
2021/12/01 09:19:38;;;;;;;;;;;22.90;56.00;;;;;;5007033;28;1088;-70
2021/12/01 09:22:04;;;;;;;;;;;23.00;56.10;;;;;;5003707;28;1403;-70
2021/12/01 09:24:29;;;;;;;;;;;23.00;56.10;;;;;;5007347;28;1649;-71
2021/12/01 09:26:56;;;;;;;;;;;23.00;56.20;;;;;;5014664;28;1692;-70
2021/12/01 09:29:22;;;;;;;;;;;23.00;56.20;;;;;;5014304;28;1971;-71
2021/12/01 09:31:47;;;;;;;;;;;23.00;56.20;;;;;;5007753;28;1425;-72
2021/12/01 09:34:13;;;;;;;;;;;23.00;56.30;;;;;;4993957;28;1068;-70
2021/12/01 09:36:38;;;;;;;;;;;23.00;57.00;;;;;;4994933;28;1313;-69
2021/12/01 09:39:05;;;;;;;;;;;22.90;56.40;;;;;;4994411;28;1389;-71
2021/12/01 09:41:31;;;;;;;;;;;22.90;56.50;;;;;;5011565;28;1631;-70
2021/12/01 09:43:56;;;;;;;;;;;22.90;56.50;;;;;;5001557;28;1634;-70
2021/12/01 09:46:22;;;;;;;;;;;22.90;56.60;;;;;;4993901;28;1743;-70
2021/12/01 09:48:48;;;;;;;;;;;22.90;56.60;;;;;;5013335;28;1605;-70
2021/12/01 09:51:15;;;;;;;;;;;22.90;56.80;;;;;;4994258;28;1927;-70
2021/12/01 09:53:40;;;;;;;;;;;22.90;57.00;;;;;;5005477;28;1609;-70
2021/12/01 09:56:06;;;;;;;;;;;22.90;57.00;;;;;;5028725;28;1386;-70
2021/12/01 09:58:32;;;;;;;;;;;22.80;57.00;;;;;;5013183;28;992;-70
2021/12/01 10:01:07;;;;;;;;;;;22.80;57.30;;;;;;4993032;28;1468;-70
2021/12/01 10:03:33;;;;;;;;;;;22.80;57.30;;;;;;5009809;28;1435;-69
2021/12/01 10:06:02;;;;;;;;;;;22.80;57.40;;;;;;5013791;28;1621;-70
2021/12/01 10:08:31;;;;;;;;;;;22.70;57.40;;;;;;4998538;28;1427;-71
2021/12/01 10:10:57;;;;;;;;;;;22.70;57.70;;;;;;5013626;28;1942;-70
2021/12/01 10:13:33;;;;;;;;;;;22.80;57.70;;;;;;4999442;28;1677;-71
2021/12/01 10:15:59;;;;;;;;;;;22.70;57.70;;;;;;5003014;28;1658;-71
2021/12/01 10:18:25;;;;;;;;;;;22.70;57.90;;;;;;5009587;28;1576;-71
2021/12/01 10:20:58;;;;;;;;;;;22.60;57.90;;;;;;5012614;28;1715;-70
2021/12/01 10:23:24;;;;;;;;;;;22.60;58.20;;;;;;4996558;28;1362;-71
2021/12/01 10:25:49;;;;;;;;;;;22.60;58.30;;;;;;4993667;28;1600;-71
2021/12/01 10:28:34;;;;;;;;;;;22.60;58.30;;;;;;4993688;28;1408;-70
2021/12/01 10:31:00;;;;;;;;;;;22.50;58.40;;;;;;5002987;28;1898;-70
2021/12/01 10:33:25;;;;;;;;;;;22.50;58.40;;;;;;4991993;28;1685;-69
2021/12/01 10:35:51;;;;;;;;;;;22.50;58.60;;;;;;5004719;28;1660;-70
2021/12/01 10:38:24;;;;;;;;;;;22.50;58.60;;;;;;4994593;28;1859;-71
2021/12/01 10:40:49;;;;;;;;;;;22.50;58.60;;;;;;5012206;28;1512;-71
2021/12/01 10:43:15;;;;;;;;;;;22.50;58.60;;;;;;5011466;28;1600;-70
2021/12/01 10:45:42;;;;;;;;;;;22.50;58.80;;;;;;5008787;28;1614;-70
2021/12/01 10:48:09;;;;;;;;;;;22.50;58.90;;;;;;4996031;28;1679;-71
2021/12/01 10:50:40;;;;;;;;;;;22.50;58.90;;;;;;5006099;28;1906;-69
2021/12/01 10:53:07;;;;;;;;;;;22.50;58.80;;;;;;5012122;28;1393;-70
2021/12/01 10:55:33;;;;;;;;;;;22.50;58.70;;;;;;5004060;28;1306;-71
2021/12/01 10:58:00;;;;;;;;;;;22.40;58.60;;;;;;4993038;28;1276;-70
2021/12/01 11:00:29;;;;;;;;;;;22.40;58.70;;;;;;5004553;28;1479;-71
2021/12/01 11:03:10;;;;;;;;;;;22.50;58.70;;;;;;4999133;28;1344;-71
2021/12/01 11:05:40;;;;;;;;;;;22.50;58.80;;;;;;4995308;28;1361;-71
2021/12/01 11:08:14;;;;;;;;;;;22.50;58.80;;;;;;5002453;28;1348;-70
2021/12/01 11:10:40;;;;;;;;;;;22.40;58.70;;;;;;4994393;28;1890;-71
2021/12/01 11:13:06;;;;;;;;;;;22.40;59.10;;;;;;4990876;28;1450;-71
2021/12/01 11:15:32;;;;;;;;;;;22.50;59.00;;;;;;4989430;28;1253;-70
2021/12/01 11:17:59;;;;;;;;;;;22.50;59.80;;;;;;4991985;28;1273;-70
2021/12/01 11:20:34;;;;;;;;;;;22.50;58.90;;;;;;5007660;28;1187;-70
2021/12/01 11:23:06;;;;;;;;;;;22.50;58.80;;;;;;4996350;28;1466;-68
2021/12/01 11:25:33;;;;;;;;;;;22.50;58.80;;;;;;5011054;28;1420;-68
2021/12/01 11:27:59;;;;;;;;;;;22.50;59.00;;;;;;4996648;28;1331;-68
2021/12/01 11:30:24;;;;;;;;;;;22.50;59.00;;;;;;5010995;28;1879;-69
2021/12/01 11:32:50;;;;;;;;;;;22.50;59.00;;;;;;5008839;28;1104;-68
2021/12/01 11:35:15;;;;;;;;;;;22.50;59.00;;;;;;4998214;28;1370;-69
2021/12/01 11:37:41;;;;;;;;;;;22.50;59.00;;;;;;4997627;28;2042;-67
2021/12/01 11:40:06;;;;;;;;;;;22.50;59.00;;;;;;5010871;28;1178;-70
2021/12/01 11:42:32;;;;;;;;;;;22.50;59.20;;;;;;5008190;28;1338;-68
2021/12/01 11:44:58;;;;;;;;;;;22.50;59.00;;;;;;5002473;28;1252;-70
2021/12/01 11:47:23;;;;;;;;;;;22.50;58.90;;;;;;5008160;28;1340;-68
2021/12/01 11:49:49;;;;;;;;;;;22.50;58.90;;;;;;5015862;28;1907;-70
2021/12/01 11:52:14;;;;;;;;;;;22.50;58.90;;;;;;5005929;28;1259;-71
2021/12/01 11:54:44;;;;;;;;;;;22.50;58.90;;;;;;5001311;28;1095;-70
2021/12/01 11:57:09;;;;;;;;;;;22.50;58.90;;;;;;5000000;28;1339;-70
2021/12/01 11:59:38;;;;;;;;;;;22.50;59.20;;;;;;5007695;28;1320;-70
2021/12/01 12:02:04;;;;;;;;;;;22.50;59.20;;;;;;5007344;28;1048;-72
2021/12/01 12:04:39;;;;;;;;;;;22.40;59.30;;;;;;5001658;28;1743;-70
2021/12/01 12:07:20;;;;;;;;;;;22.40;59.30;;;;;;4999021;28;1287;-68
2021/12/01 12:10:05;;;;;;;;;;;22.40;59.40;;;;;;4996041;28;1891;-68
2021/12/01 12:12:43;;;;;;;;;;;22.40;59.40;;;;;;5000261;28;1369;-70
2021/12/01 12:15:08;;;;;;;;;;;22.40;59.40;;;;;;5016032;28;1421;-70
2021/12/01 12:17:35;;;;;;;;;;;22.40;59.40;;;;;;5006506;28;1319;-69
2021/12/01 12:20:21;;;;;;;;;;;22.40;59.50;;;;;;5009500;28;1053;-70
2021/12/01 12:22:47;;;;;;;;;;;22.40;59.40;;;;;;4995134;28;1278;-69
2021/12/01 12:25:32;;;;;;;;;;;22.40;59.50;;;;;;4995659;28;1294;-70
2021/12/01 12:27:57;;;;;;;;;;;22.40;59.70;;;;;;4995818;28;1179;-70
2021/12/01 12:30:29;;;;;;;;;;;22.30;59.60;;;;;;5013093;28;1887;-69
2021/12/01 12:33:13;;;;;;;;;;;22.30;59.60;;;;;;5001169;28;1287;-70
2021/12/01 12:35:42;;;;;;;;;;;22.30;59.70;;;;;;4995488;28;1331;-70
2021/12/01 12:38:08;;;;;;;;;;;22.30;59.70;;;;;;4995638;28;1338;-69
2021/12/01 12:40:33;;;;;;;;;;;22.30;59.70;;;;;;4995206;28;1427;-71
2021/12/01 12:43:09;;;;;;;;;;;22.30;59.70;;;;;;5006462;28;1148;-70
2021/12/01 12:45:37;;;;;;;;;;;22.30;59.70;;;;;;5007981;28;1372;-71
2021/12/01 12:48:21;;;;;;;;;;;22.30;59.80;;;;;;4994060;28;1395;-71
2021/12/01 12:51:05;;;;;;;;;;;22.40;59.70;;;;;;5010269;28;1902;-73
2021/12/01 12:53:30;;;;;;;;;;;22.40;59.60;;;;;;5002563;28;1261;-70
2021/12/01 12:55:56;;;;;;;;;;;22.40;59.60;;;;;;5012035;28;1344;-70
2021/12/01 12:58:22;;;;;;;;;;;22.50;59.50;;;;;;5003065;28;1346;-71
2021/12/01 13:00:56;;;;;;;;;;;22.50;59.50;;;;;;5008586;28;1371;-68
2021/12/01 13:03:22;;;;;;;;;;;22.50;59.40;;;;;;4995332;28;1332;-71
2021/12/01 13:05:51;;;;;;;;;;;22.60;59.40;;;;;;5007153;28;1401;-71
2021/12/01 13:08:29;;;;;;;;;;;22.50;56.00;;;;;;4995372;28;1072;-70
2021/12/01 13:10:58;;;;;;;;;;;22.50;54.90;;;;;;4994705;28;1899;-70
2021/12/01 13:13:28;;;;;;;;;;;22.40;54.40;;;;;;5004417;28;1264;-69
2021/12/01 13:15:53;;;;;;;;;;;22.40;54.10;;;;;;5023781;28;1322;-69
2021/12/01 13:18:25;;;;;;;;;;;22.30;53.70;;;;;;5020691;28;1380;-69
2021/12/01 13:20:51;;;;;;;;;;;22.30;53.00;;;;;;5022108;28;1031;-71
2021/12/01 13:23:26;;;;;;;;;;;22.20;52.70;;;;;;4999664;28;1073;-70
2021/12/01 13:26:16;;;;;;;;;;;22.20;52.20;;;;;;5014224;28;1260;-70
2021/12/01 13:28:44;;;;;;;;;;;22.20;52.20;;;;;;4997052;28;1417;-70
2021/12/01 13:31:11;;;;;;;;;;;22.20;52.40;;;;;;5021390;28;1898;-71
2021/12/01 13:33:56;;;;;;;;;;;22.10;52.60;;;;;;4998644;28;1290;-71
2021/12/01 13:36:22;;;;;;;;;;;22.10;52.90;;;;;;5012971;28;1353;-72
2021/12/01 13:39:11;;;;;;;;;;;22.10;53.70;;;;;;5010482;28;1268;-72
2021/12/01 13:41:36;;;;;;;;;;;22.10;53.40;;;;;;4995296;28;1411;-72
2021/12/01 13:44:16;;;;;;;;;;;22.10;53.70;;;;;;5012167;28;1196;-71
2021/12/01 13:46:41;;;;;;;;;;;22.10;53.90;;;;;;5013975;28;1390;-70
2021/12/01 13:49:07;;;;;;;;;;;22.10;54.00;;;;;;4999435;28;1324;-72
2021/12/01 13:51:37;;;;;;;;;;;22.10;54.20;;;;;;5003673;28;1961;-71
2021/12/01 13:54:15;;;;;;;;;;;22.10;54.40;;;;;;5008164;28;1077;-72
2021/12/01 13:56:41;;;;;;;;;;;22.10;54.50;;;;;;5001652;28;1312;-70
2021/12/01 13:59:06;;;;;;;;;;;22.10;55.20;;;;;;5010813;28;1277;-69
2021/12/01 14:01:32;;;;;;;;;;;22.10;54.80;;;;;;5002662;28;1051;-70
2021/12/01 14:03:59;;;;;;;;;;;22.10;55.00;;;;;;4994265;28;1171;-70
2021/12/01 14:06:29;;;;;;;;;;;22.10;55.10;;;;;;5014259;28;1323;-70
2021/12/01 14:09:03;;;;;;;;;;;22.10;55.20;;;;;;5020645;28;1304;-71
2021/12/01 14:11:35;;;;;;;;;;;22.10;55.20;;;;;;5019229;28;1978;-70
2021/12/01 14:14:04;;;;;;;;;;;22.00;55.30;;;;;;5024714;28;1312;-70
2021/12/01 14:16:32;;;;;;;;;;;22.00;55.40;;;;;;5008681;28;1703;-70
2021/12/01 14:18:57;;;;;;;;;;;22.00;55.50;;;;;;5016373;28;1392;-70
2021/12/01 14:21:24;;;;;;;;;;;22.00;55.60;;;;;;5018591;28;1312;-71
2021/12/01 14:23:50;;;;;;;;;;;22.00;55.70;;;;;;5003066;28;1902;-70
2021/12/01 14:26:16;;;;;;;;;;;22.00;55.70;;;;;;5019335;28;1380;-70
2021/12/01 14:28:44;;;;;;;;;;;22.00;55.80;;;;;;5018967;28;1388;-70
2021/12/01 14:31:09;;;;;;;;;;;22.00;55.90;;;;;;5016679;28;1898;-70
2021/12/01 14:33:35;;;;;;;;;;;21.90;55.90;;;;;;5020113;28;1305;-72
2021/12/01 14:36:04;;;;;;;;;;;21.90;55.90;;;;;;5010687;28;1624;-70